sensor_id;sensor_type;location;lat;lon;timestamp;P1;durP1;ratioP1;P2;durP2;ratioP2
3004;SDS011;1512;51.486;6.610;2022-07-23T00:01:28;5.33;;;4.27;;
3004;SDS011;1512;51.486;6.610;2022-07-23T00:05:36;8.43;;;4.93;;
3004;SDS011;1512;51.486;6.610;2022-07-23T00:09:45;4.73;;;4.23;;
3004;SDS011;1512;51.486;6.610;2022-07-23T00:13:54;5.30;;;4.80;;
3004;SDS011;1512;51.486;6.610;2022-07-23T00:18:05;5.40;;;4.87;;
3004;SDS011;1512;51.486;6.610;2022-07-23T00:22:13;6.13;;;5.53;;
3004;SDS011;1512;51.486;6.610;2022-07-23T00:26:22;7.73;;;5.00;;
3004;SDS011;1512;51.486;6.610;2022-07-23T00:30:31;4.90;;;4.40;;
3004;SDS011;1512;51.486;6.610;2022-07-23T00:34:40;4.93;;;4.07;;
3004;SDS011;1512;51.486;6.610;2022-07-23T00:38:49;5.15;;;4.62;;
3004;SDS011;1512;51.486;6.610;2022-07-23T00:42:58;10.33;;;6.47;;
3004;SDS011;1512;51.486;6.610;2022-07-23T00:47:07;5.40;;;4.87;;
3004;SDS011;1512;51.486;6.610;2022-07-23T00:51:15;8.40;;;4.73;;
3004;SDS011;1512;51.486;6.610;2022-07-23T00:55:25;6.53;;;5.00;;
3004;SDS011;1512;51.486;6.610;2022-07-23T00:59:34;5.13;;;4.63;;
3004;SDS011;1512;51.486;6.610;2022-07-23T01:03:42;6.73;;;5.40;;
3004;SDS011;1512;51.486;6.610;2022-07-23T01:07:51;6.73;;;5.00;;
3004;SDS011;1512;51.486;6.610;2022-07-23T01:12:02;4.70;;;4.30;;
3004;SDS011;1512;51.486;6.610;2022-07-23T01:16:12;5.87;;;5.20;;
3004;SDS011;1512;51.486;6.610;2022-07-23T01:20:21;5.50;;;5.00;;
3004;SDS011;1512;51.486;6.610;2022-07-23T01:24:30;5.50;;;4.70;;
3004;SDS011;1512;51.486;6.610;2022-07-23T01:28:39;6.07;;;5.30;;
3004;SDS011;1512;51.486;6.610;2022-07-23T01:32:47;5.53;;;4.83;;
3004;SDS011;1512;51.486;6.610;2022-07-23T01:36:56;7.50;;;6.20;;
3004;SDS011;1512;51.486;6.610;2022-07-23T01:41:04;5.53;;;4.70;;
3004;SDS011;1512;51.486;6.610;2022-07-23T01:45:13;5.53;;;4.97;;
3004;SDS011;1512;51.486;6.610;2022-07-23T01:49:22;9.07;;;5.10;;
3004;SDS011;1512;51.486;6.610;2022-07-23T01:53:31;5.87;;;4.90;;
3004;SDS011;1512;51.486;6.610;2022-07-23T01:57:40;5.30;;;4.80;;
3004;SDS011;1512;51.486;6.610;2022-07-23T02:01:48;5.83;;;5.23;;
3004;SDS011;1512;51.486;6.610;2022-07-23T02:05:58;6.27;;;5.27;;
3004;SDS011;1512;51.486;6.610;2022-07-23T02:10:07;5.03;;;4.53;;
3004;SDS011;1512;51.486;6.610;2022-07-23T02:14:16;5.20;;;4.70;;
3004;SDS011;1512;51.486;6.610;2022-07-23T02:18:24;6.57;;;5.77;;
3004;SDS011;1512;51.486;6.610;2022-07-23T02:22:33;6.43;;;5.23;;
3004;SDS011;1512;51.486;6.610;2022-07-23T02:26:43;7.67;;;5.13;;
3004;SDS011;1512;51.486;6.610;2022-07-23T02:30:51;6.50;;;5.90;;
3004;SDS011;1512;51.486;6.610;2022-07-23T02:35:00;6.50;;;5.80;;
3004;SDS011;1512;51.486;6.610;2022-07-23T02:39:09;6.20;;;5.43;;
3004;SDS011;1512;51.486;6.610;2022-07-23T02:43:18;8.40;;;5.50;;
3004;SDS011;1512;51.486;6.610;2022-07-23T02:47:26;6.20;;;5.60;;
3004;SDS011;1512;51.486;6.610;2022-07-23T02:51:35;9.17;;;6.00;;
3004;SDS011;1512;51.486;6.610;2022-07-23T02:55:43;6.87;;;5.33;;
3004;SDS011;1512;51.486;6.610;2022-07-23T02:59:52;7.07;;;6.37;;
3004;SDS011;1512;51.486;6.610;2022-07-23T03:04:01;9.73;;;5.77;;
3004;SDS011;1512;51.486;6.610;2022-07-23T03:08:10;6.70;;;5.97;;
3004;SDS011;1512;51.486;6.610;2022-07-23T03:12:18;7.93;;;6.60;;
3004;SDS011;1512;51.486;6.610;2022-07-23T03:16:27;6.07;;;5.17;;
3004;SDS011;1512;51.486;6.610;2022-07-23T03:20:35;7.37;;;5.53;;
3004;SDS011;1512;51.486;6.610;2022-07-23T03:24:44;11.67;;;6.60;;
3004;SDS011;1512;51.486;6.610;2022-07-23T03:29:02;7.50;;;6.40;;
3004;SDS011;1512;51.486;6.610;2022-07-23T03:33:16;8.10;;;6.77;;
3004;SDS011;1512;51.486;6.610;2022-07-23T03:37:23;8.07;;;6.70;;
3004;SDS011;1512;51.486;6.610;2022-07-23T03:41:32;9.00;;;7.17;;
3004;SDS011;1512;51.486;6.610;2022-07-23T03:45:40;7.40;;;6.57;;
3004;SDS011;1512;51.486;6.610;2022-07-23T03:49:49;7.70;;;6.87;;
3004;SDS011;1512;51.486;6.610;2022-07-23T03:53:58;6.90;;;6.20;;
3004;SDS011;1512;51.486;6.610;2022-07-23T03:58:06;10.63;;;6.13;;
3004;SDS011;1512;51.486;6.610;2022-07-23T04:02:15;9.30;;;5.47;;
3004;SDS011;1512;51.486;6.610;2022-07-23T04:06:24;7.30;;;6.27;;
3004;SDS011;1512;51.486;6.610;2022-07-23T04:10:33;9.13;;;6.70;;
3004;SDS011;1512;51.486;6.610;2022-07-23T04:14:41;6.37;;;5.73;;
3004;SDS011;1512;51.486;6.610;2022-07-23T04:18:50;8.70;;;7.40;;
3004;SDS011;1512;51.486;6.610;2022-07-23T04:22:59;8.30;;;6.83;;
3004;SDS011;1512;51.486;6.610;2022-07-23T04:27:07;9.73;;;6.33;;
3004;SDS011;1512;51.486;6.610;2022-07-23T04:31:16;9.73;;;7.30;;
3004;SDS011;1512;51.486;6.610;2022-07-23T04:35:24;7.50;;;6.70;;
3004;SDS011;1512;51.486;6.610;2022-07-23T04:39:33;7.77;;;6.70;;
3004;SDS011;1512;51.486;6.610;2022-07-23T04:43:42;8.93;;;5.80;;
3004;SDS011;1512;51.486;6.610;2022-07-23T04:47:50;8.50;;;7.17;;
3004;SDS011;1512;51.486;6.610;2022-07-23T04:51:59;7.60;;;6.83;;
3004;SDS011;1512;51.486;6.610;2022-07-23T04:56:09;8.00;;;6.77;;
3004;SDS011;1512;51.486;6.610;2022-07-23T05:00:17;12.10;;;7.20;;
3004;SDS011;1512;51.486;6.610;2022-07-23T05:04:26;9.43;;;6.43;;
3004;SDS011;1512;51.486;6.610;2022-07-23T05:08:35;10.93;;;6.90;;
3004;SDS011;1512;51.486;6.610;2022-07-23T05:12:43;8.70;;;7.10;;
3004;SDS011;1512;51.486;6.610;2022-07-23T05:16:52;8.60;;;7.70;;
3004;SDS011;1512;51.486;6.610;2022-07-23T05:21:01;10.30;;;7.30;;
3004;SDS011;1512;51.486;6.610;2022-07-23T05:25:09;9.67;;;7.23;;
3004;SDS011;1512;51.486;6.610;2022-07-23T05:29:18;8.13;;;6.50;;
3004;SDS011;1512;51.486;6.610;2022-07-23T05:33:27;7.23;;;6.53;;
3004;SDS011;1512;51.486;6.610;2022-07-23T05:37:35;12.57;;;8.20;;
3004;SDS011;1512;51.486;6.610;2022-07-23T05:41:44;9.90;;;8.13;;
3004;SDS011;1512;51.486;6.610;2022-07-23T05:45:53;8.20;;;7.40;;
3004;SDS011;1512;51.486;6.610;2022-07-23T05:50:03;8.87;;;7.27;;
3004;SDS011;1512;51.486;6.610;2022-07-23T05:54:12;9.67;;;7.20;;
3004;SDS011;1512;51.486;6.610;2022-07-23T05:58:20;9.13;;;7.17;;
3004;SDS011;1512;51.486;6.610;2022-07-23T06:02:29;9.70;;;7.77;;
3004;SDS011;1512;51.486;6.610;2022-07-23T06:06:38;9.20;;;7.70;;
3004;SDS011;1512;51.486;6.610;2022-07-23T06:10:46;14.17;;;8.90;;
3004;SDS011;1512;51.486;6.610;2022-07-23T06:14:55;11.00;;;7.43;;
3004;SDS011;1512;51.486;6.610;2022-07-23T06:19:03;9.67;;;7.90;;
3004;SDS011;1512;51.486;6.610;2022-07-23T06:23:12;12.53;;;8.40;;
3004;SDS011;1512;51.486;6.610;2022-07-23T06:27:21;9.33;;;7.80;;
3004;SDS011;1512;51.486;6.610;2022-07-23T06:31:31;10.57;;;8.53;;
3004;SDS011;1512;51.486;6.610;2022-07-23T06:35:40;9.80;;;7.43;;
3004;SDS011;1512;51.486;6.610;2022-07-23T06:39:49;9.37;;;7.63;;
3004;SDS011;1512;51.486;6.610;2022-07-23T06:43:58;6.87;;;6.07;;
3004;SDS011;1512;51.486;6.610;2022-07-23T06:48:06;8.83;;;7.67;;
3004;SDS011;1512;51.486;6.610;2022-07-23T06:52:15;9.67;;;6.97;;
3004;SDS011;1512;51.486;6.610;2022-07-23T06:56:24;8.57;;;7.73;;
3004;SDS011;1512;51.486;6.610;2022-07-23T07:00:32;7.83;;;6.13;;
3004;SDS011;1512;51.486;6.610;2022-07-23T07:04:41;8.80;;;7.00;;
3004;SDS011;1512;51.486;6.610;2022-07-23T07:08:50;8.70;;;7.40;;
3004;SDS011;1512;51.486;6.610;2022-07-23T07:12:58;6.60;;;5.90;;
3004;SDS011;1512;51.486;6.610;2022-07-23T07:17:07;6.73;;;6.03;;
3004;SDS011;1512;51.486;6.610;2022-07-23T07:21:17;9.43;;;7.50;;
3004;SDS011;1512;51.486;6.610;2022-07-23T07:25:26;13.07;;;7.13;;
3004;SDS011;1512;51.486;6.610;2022-07-23T07:29:35;6.43;;;5.73;;
3004;SDS011;1512;51.486;6.610;2022-07-23T07:33:43;8.60;;;6.40;;
3004;SDS011;1512;51.486;6.610;2022-07-23T07:37:53;5.77;;;5.20;;
3004;SDS011;1512;51.486;6.610;2022-07-23T07:42:01;7.73;;;5.33;;
3004;SDS011;1512;51.486;6.610;2022-07-23T07:46:10;10.17;;;7.30;;
3004;SDS011;1512;51.486;6.610;2022-07-23T07:50:20;6.77;;;6.10;;
3004;SDS011;1512;51.486;6.610;2022-07-23T07:54:29;8.30;;;6.90;;
3004;SDS011;1512;51.486;6.610;2022-07-23T07:58:39;7.50;;;6.20;;
3004;SDS011;1512;51.486;6.610;2022-07-23T08:02:51;6.93;;;5.90;;
3004;SDS011;1512;51.486;6.610;2022-07-23T08:07:02;6.67;;;5.00;;
3004;SDS011;1512;51.486;6.610;2022-07-23T08:11:11;6.87;;;5.47;;
3004;SDS011;1512;51.486;6.610;2022-07-23T08:15:20;5.20;;;4.53;;
3004;SDS011;1512;51.486;6.610;2022-07-23T08:19:30;6.13;;;5.07;;
3004;SDS011;1512;51.486;6.610;2022-07-23T08:23:38;8.17;;;4.57;;
3004;SDS011;1512;51.486;6.610;2022-07-23T08:27:48;5.53;;;4.97;;
3004;SDS011;1512;51.486;6.610;2022-07-23T08:31:56;6.60;;;4.60;;
3004;SDS011;1512;51.486;6.610;2022-07-23T08:36:05;8.93;;;4.90;;
3004;SDS011;1512;51.486;6.610;2022-07-23T08:40:14;4.60;;;4.17;;
3004;SDS011;1512;51.486;6.610;2022-07-23T08:44:23;6.47;;;4.50;;
3004;SDS011;1512;51.486;6.610;2022-07-23T08:48:33;4.20;;;3.80;;
3004;SDS011;1512;51.486;6.610;2022-07-23T08:52:46;4.07;;;3.67;;
3004;SDS011;1512;51.486;6.610;2022-07-23T08:56:57;4.90;;;4.33;;
3004;SDS011;1512;51.486;6.610;2022-07-23T09:01:06;4.87;;;4.17;;
3004;SDS011;1512;51.486;6.610;2022-07-23T09:05:15;6.03;;;4.30;;
3004;SDS011;1512;51.486;6.610;2022-07-23T09:09:24;4.93;;;4.40;;
3004;SDS011;1512;51.486;6.610;2022-07-23T09:18:01;6.60;;;5.23;;
3004;SDS011;1512;51.486;6.610;2022-07-23T09:22:17;6.57;;;4.60;;
3004;SDS011;1512;51.486;6.610;2022-07-23T09:26:41;6.47;;;4.47;;
3004;SDS011;1512;51.486;6.610;2022-07-23T09:30:51;6.80;;;5.17;;
3004;SDS011;1512;51.486;6.610;2022-07-23T09:35:00;4.53;;;4.10;;
3004;SDS011;1512;51.486;6.610;2022-07-23T09:39:08;4.47;;;4.07;;
3004;SDS011;1512;51.486;6.610;2022-07-23T09:43:27;5.27;;;4.60;;
3004;SDS011;1512;51.486;6.610;2022-07-23T09:47:37;5.23;;;4.47;;
3004;SDS011;1512;51.486;6.610;2022-07-23T09:51:47;5.30;;;4.30;;
3004;SDS011;1512;51.486;6.610;2022-07-23T09:56:01;5.17;;;4.20;;
3004;SDS011;1512;51.486;6.610;2022-07-23T10:00:11;5.10;;;4.20;;
3004;SDS011;1512;51.486;6.610;2022-07-23T10:04:21;8.03;;;4.17;;
3004;SDS011;1512;51.486;6.610;2022-07-23T10:08:30;5.10;;;3.83;;
3004;SDS011;1512;51.486;6.610;2022-07-23T10:12:43;4.47;;;3.90;;
3004;SDS011;1512;51.486;6.610;2022-07-23T10:17:05;8.17;;;4.47;;
3004;SDS011;1512;51.486;6.610;2022-07-23T10:25:42;4.77;;;4.27;;
3004;SDS011;1512;51.486;6.610;2022-07-23T10:30:06;5.90;;;4.40;;
3004;SDS011;1512;51.486;6.610;2022-07-23T10:38:42;3.33;;;3.03;;
3004;SDS011;1512;51.486;6.610;2022-07-23T10:42:52;5.20;;;4.10;;
3004;SDS011;1512;51.486;6.610;2022-07-23T10:47:03;4.90;;;3.40;;
3004;SDS011;1512;51.486;6.610;2022-07-23T10:51:30;5.30;;;3.03;;
3004;SDS011;1512;51.486;6.610;2022-07-23T10:55:40;5.23;;;3.70;;
3004;SDS011;1512;51.486;6.610;2022-07-23T11:04:18;3.40;;;3.10;;
3004;SDS011;1512;51.486;6.610;2022-07-23T11:08:27;3.70;;;3.37;;
3004;SDS011;1512;51.486;6.610;2022-07-23T11:12:36;4.25;;;3.85;;
3004;SDS011;1512;51.486;6.610;2022-07-23T11:16:46;4.50;;;3.63;;
3004;SDS011;1512;51.486;6.610;2022-07-23T11:20:55;4.30;;;2.80;;
3004;SDS011;1512;51.486;6.610;2022-07-23T11:25:04;4.50;;;3.37;;
3004;SDS011;1512;51.486;6.610;2022-07-23T11:33:42;6.03;;;3.93;;
3004;SDS011;1512;51.486;6.610;2022-07-23T11:37:51;3.90;;;3.60;;
3004;SDS011;1512;51.486;6.610;2022-07-23T11:42:03;3.67;;;3.37;;
3004;SDS011;1512;51.486;6.610;2022-07-23T11:46:13;4.57;;;3.57;;
3004;SDS011;1512;51.486;6.610;2022-07-23T11:50:23;4.03;;;3.63;;
3004;SDS011;1512;51.486;6.610;2022-07-23T11:54:33;3.77;;;3.37;;
3004;SDS011;1512;51.486;6.610;2022-07-23T11:58:53;3.10;;;2.80;;
3004;SDS011;1512;51.486;6.610;2022-07-23T12:03:06;4.30;;;3.90;;
3004;SDS011;1512;51.486;6.610;2022-07-23T12:07:30;3.77;;;3.27;;
3004;SDS011;1512;51.486;6.610;2022-07-23T12:11:41;4.20;;;3.80;;
3004;SDS011;1512;51.486;6.610;2022-07-23T12:16:08;3.30;;;3.00;;
3004;SDS011;1512;51.486;6.610;2022-07-23T12:20:18;3.20;;;2.77;;
3004;SDS011;1512;51.486;6.610;2022-07-23T12:24:29;3.92;;;3.35;;
3004;SDS011;1512;51.486;6.610;2022-07-23T12:28:37;3.20;;;2.90;;
3004;SDS011;1512;51.486;6.610;2022-07-23T12:32:48;3.60;;;3.30;;
3004;SDS011;1512;51.486;6.610;2022-07-23T12:36:58;8.23;;;3.60;;
3004;SDS011;1512;51.486;6.610;2022-07-23T12:41:08;3.40;;;3.10;;
3004;SDS011;1512;51.486;6.610;2022-07-23T12:45:17;3.87;;;3.47;;
3004;SDS011;1512;51.486;6.610;2022-07-23T12:49:27;4.17;;;3.77;;
3004;SDS011;1512;51.486;6.610;2022-07-23T12:53:48;3.70;;;3.40;;
3004;SDS011;1512;51.486;6.610;2022-07-23T12:58:02;4.03;;;3.63;;
3004;SDS011;1512;51.486;6.610;2022-07-23T13:02:12;3.50;;;3.20;;
3004;SDS011;1512;51.486;6.610;2022-07-23T13:06:21;6.20;;;3.50;;
3004;SDS011;1512;51.486;6.610;2022-07-23T13:10:31;3.87;;;3.30;;
3004;SDS011;1512;51.486;6.610;2022-07-23T13:14:39;3.53;;;3.23;;
3004;SDS011;1512;51.486;6.610;2022-07-23T13:18:48;4.60;;;3.20;;
3004;SDS011;1512;51.486;6.610;2022-07-23T13:22:57;4.37;;;3.15;;
3004;SDS011;1512;51.486;6.610;2022-07-23T13:27:06;6.83;;;2.83;;
3004;SDS011;1512;51.486;6.610;2022-07-23T13:31:17;5.13;;;4.07;;
3004;SDS011;1512;51.486;6.610;2022-07-23T13:35:26;3.50;;;3.07;;
3004;SDS011;1512;51.486;6.610;2022-07-23T13:39:36;4.57;;;3.33;;
3004;SDS011;1512;51.486;6.610;2022-07-23T13:43:45;3.83;;;3.50;;
3004;SDS011;1512;51.486;6.610;2022-07-23T13:47:54;3.40;;;3.10;;
3004;SDS011;1512;51.486;6.610;2022-07-23T13:52:03;3.70;;;3.33;;
3004;SDS011;1512;51.486;6.610;2022-07-23T13:56:14;4.10;;;3.70;;
3004;SDS011;1512;51.486;6.610;2022-07-23T14:00:23;6.23;;;4.37;;
3004;SDS011;1512;51.486;6.610;2022-07-23T14:04:33;4.30;;;3.07;;
3004;SDS011;1512;51.486;6.610;2022-07-23T14:08:42;4.27;;;3.40;;
3004;SDS011;1512;51.486;6.610;2022-07-23T14:12:52;7.23;;;3.70;;
3004;SDS011;1512;51.486;6.610;2022-07-23T14:17:02;3.67;;;3.37;;
3004;SDS011;1512;51.486;6.610;2022-07-23T14:21:13;4.17;;;3.40;;
3004;SDS011;1512;51.486;6.610;2022-07-23T14:25:21;4.37;;;3.43;;
3004;SDS011;1512;51.486;6.610;2022-07-23T14:29:32;3.77;;;3.37;;
3004;SDS011;1512;51.486;6.610;2022-07-23T14:33:41;3.70;;;3.40;;
3004;SDS011;1512;51.486;6.610;2022-07-23T14:37:49;3.13;;;2.87;;
3004;SDS011;1512;51.486;6.610;2022-07-23T14:41:58;3.80;;;3.23;;
3004;SDS011;1512;51.486;6.610;2022-07-23T14:46:07;5.10;;;4.00;;
3004;SDS011;1512;51.486;6.610;2022-07-23T14:50:15;4.73;;;3.43;;
3004;SDS011;1512;51.486;6.610;2022-07-23T14:54:24;3.40;;;3.10;;
3004;SDS011;1512;51.486;6.610;2022-07-23T14:58:35;4.27;;;3.30;;
3004;SDS011;1512;51.486;6.610;2022-07-23T15:02:44;4.90;;;4.20;;
3004;SDS011;1512;51.486;6.610;2022-07-23T15:06:54;4.00;;;3.33;;
3004;SDS011;1512;51.486;6.610;2022-07-23T15:11:03;3.57;;;3.27;;
3004;SDS011;1512;51.486;6.610;2022-07-23T15:15:13;3.43;;;3.10;;
3004;SDS011;1512;51.486;6.610;2022-07-23T15:19:22;5.10;;;3.27;;
3004;SDS011;1512;51.486;6.610;2022-07-23T15:23:31;3.20;;;2.90;;
3004;SDS011;1512;51.486;6.610;2022-07-23T15:27:41;5.10;;;4.50;;
3004;SDS011;1512;51.486;6.610;2022-07-23T15:31:50;5.90;;;4.13;;
3004;SDS011;1512;51.486;6.610;2022-07-23T15:36:00;3.40;;;3.10;;
3004;SDS011;1512;51.486;6.610;2022-07-23T15:40:09;3.70;;;3.30;;
3004;SDS011;1512;51.486;6.610;2022-07-23T15:44:20;3.77;;;3.20;;
3004;SDS011;1512;51.486;6.610;2022-07-23T15:48:30;4.27;;;3.60;;
3004;SDS011;1512;51.486;6.610;2022-07-23T15:52:41;3.60;;;3.30;;
3004;SDS011;1512;51.486;6.610;2022-07-23T15:56:51;5.63;;;3.70;;
3004;SDS011;1512;51.486;6.610;2022-07-23T16:01:01;4.63;;;3.93;;
3004;SDS011;1512;51.486;6.610;2022-07-23T16:05:12;3.50;;;3.20;;
3004;SDS011;1512;51.486;6.610;2022-07-23T16:09:39;4.37;;;3.50;;
3004;SDS011;1512;51.486;6.610;2022-07-23T16:13:48;3.67;;;3.37;;
3004;SDS011;1512;51.486;6.610;2022-07-23T16:17:57;3.70;;;3.40;;
3004;SDS011;1512;51.486;6.610;2022-07-23T16:22:06;3.83;;;3.53;;
3004;SDS011;1512;51.486;6.610;2022-07-23T16:26:17;3.83;;;3.50;;
3004;SDS011;1512;51.486;6.610;2022-07-23T16:30:27;6.20;;;3.50;;
3004;SDS011;1512;51.486;6.610;2022-07-23T16:34:36;4.23;;;3.70;;
3004;SDS011;1512;51.486;6.610;2022-07-23T16:38:45;4.33;;;3.93;;
3004;SDS011;1512;51.486;6.610;2022-07-23T16:42:53;4.00;;;3.60;;
3004;SDS011;1512;51.486;6.610;2022-07-23T16:47:02;3.97;;;3.67;;
3004;SDS011;1512;51.486;6.610;2022-07-23T16:51:11;4.10;;;3.70;;
3004;SDS011;1512;51.486;6.610;2022-07-23T16:55:19;4.37;;;3.97;;
3004;SDS011;1512;51.486;6.610;2022-07-23T16:59:28;5.23;;;3.87;;
3004;SDS011;1512;51.486;6.610;2022-07-23T17:03:37;5.23;;;3.77;;
3004;SDS011;1512;51.486;6.610;2022-07-23T17:07:46;8.27;;;3.77;;
3004;SDS011;1512;51.486;6.610;2022-07-23T17:11:55;5.47;;;4.00;;
3004;SDS011;1512;51.486;6.610;2022-07-23T17:16:03;4.20;;;3.80;;
3004;SDS011;1512;51.486;6.610;2022-07-23T17:20:12;6.53;;;4.30;;
3004;SDS011;1512;51.486;6.610;2022-07-23T17:24:21;3.87;;;3.57;;
3004;SDS011;1512;51.486;6.610;2022-07-23T17:28:32;4.10;;;3.03;;
3004;SDS011;1512;51.486;6.610;2022-07-23T17:32:42;4.40;;;4.00;;
3004;SDS011;1512;51.486;6.610;2022-07-23T17:36:51;4.53;;;4.13;;
3004;SDS011;1512;51.486;6.610;2022-07-23T17:41:00;4.30;;;3.80;;
3004;SDS011;1512;51.486;6.610;2022-07-23T17:45:09;4.27;;;3.80;;
3004;SDS011;1512;51.486;6.610;2022-07-23T17:49:19;4.30;;;3.90;;
3004;SDS011;1512;51.486;6.610;2022-07-23T17:53:28;4.30;;;3.90;;
3004;SDS011;1512;51.486;6.610;2022-07-23T17:57:37;8.53;;;4.20;;
3004;SDS011;1512;51.486;6.610;2022-07-23T18:01:45;4.20;;;3.80;;
3004;SDS011;1512;51.486;6.610;2022-07-23T18:05:54;3.93;;;3.60;;
3004;SDS011;1512;51.486;6.610;2022-07-23T18:10:03;4.47;;;3.80;;
3004;SDS011;1512;51.486;6.610;2022-07-23T18:14:12;4.73;;;3.70;;
3004;SDS011;1512;51.486;6.610;2022-07-23T18:18:21;6.27;;;4.70;;
3004;SDS011;1512;51.486;6.610;2022-07-23T18:22:30;5.37;;;4.03;;
3004;SDS011;1512;51.486;6.610;2022-07-23T18:26:39;4.10;;;3.63;;
3004;SDS011;1512;51.486;6.610;2022-07-23T18:30:47;4.20;;;3.80;;
3004;SDS011;1512;51.486;6.610;2022-07-23T18:34:58;5.90;;;4.20;;
3004;SDS011;1512;51.486;6.610;2022-07-23T18:39:07;5.03;;;3.80;;
3004;SDS011;1512;51.486;6.610;2022-07-23T18:43:16;4.10;;;3.70;;
3004;SDS011;1512;51.486;6.610;2022-07-23T18:47:25;4.57;;;3.67;;
3004;SDS011;1512;51.486;6.610;2022-07-23T18:51:36;4.25;;;3.95;;
3004;SDS011;1512;51.486;6.610;2022-07-23T18:55:44;4.15;;;3.75;;
3004;SDS011;1512;51.486;6.610;2022-07-23T18:59:53;4.57;;;4.00;;
3004;SDS011;1512;51.486;6.610;2022-07-23T19:04:02;4.33;;;3.93;;
3004;SDS011;1512;51.486;6.610;2022-07-23T19:08:11;6.27;;;4.30;;
3004;SDS011;1512;51.486;6.610;2022-07-23T19:12:19;3.80;;;3.47;;
3004;SDS011;1512;51.486;6.610;2022-07-23T19:16:28;3.77;;;3.43;;
3004;SDS011;1512;51.486;6.610;2022-07-23T19:20:37;4.93;;;4.20;;
3004;SDS011;1512;51.486;6.610;2022-07-23T19:24:47;4.90;;;4.00;;
3004;SDS011;1512;51.486;6.610;2022-07-23T19:28:56;4.20;;;3.60;;
3004;SDS011;1512;51.486;6.610;2022-07-23T19:33:04;4.60;;;4.20;;
3004;SDS011;1512;51.486;6.610;2022-07-23T19:37:13;4.05;;;3.35;;
3004;SDS011;1512;51.486;6.610;2022-07-23T19:41:23;4.37;;;3.60;;
3004;SDS011;1512;51.486;6.610;2022-07-23T19:45:33;4.37;;;3.80;;
3004;SDS011;1512;51.486;6.610;2022-07-23T19:49:42;4.70;;;4.30;;
3004;SDS011;1512;51.486;6.610;2022-07-23T19:53:51;5.05;;;4.25;;
3004;SDS011;1512;51.486;6.610;2022-07-23T19:58:00;4.60;;;4.20;;
3004;SDS011;1512;51.486;6.610;2022-07-23T20:02:08;4.23;;;3.83;;
3004;SDS011;1512;51.486;6.610;2022-07-23T20:06:17;5.30;;;4.30;;
3004;SDS011;1512;51.486;6.610;2022-07-23T20:10:26;6.60;;;5.10;;
3004;SDS011;1512;51.486;6.610;2022-07-23T20:14:35;4.60;;;3.80;;
3004;SDS011;1512;51.486;6.610;2022-07-23T20:18:45;5.10;;;3.55;;
3004;SDS011;1512;51.486;6.610;2022-07-23T20:22:53;6.20;;;4.50;;
3004;SDS011;1512;51.486;6.610;2022-07-23T20:27:02;5.03;;;4.53;;
3004;SDS011;1512;51.486;6.610;2022-07-23T20:31:13;4.47;;;3.70;;
3004;SDS011;1512;51.486;6.610;2022-07-23T20:35:22;5.20;;;4.00;;
3004;SDS011;1512;51.486;6.610;2022-07-23T20:39:32;4.10;;;3.63;;
3004;SDS011;1512;51.486;6.610;2022-07-23T20:43:42;5.57;;;4.33;;
3004;SDS011;1512;51.486;6.610;2022-07-23T20:47:50;4.70;;;4.27;;
3004;SDS011;1512;51.486;6.610;2022-07-23T20:51:59;5.33;;;4.83;;
3004;SDS011;1512;51.486;6.610;2022-07-23T20:56:08;6.63;;;5.13;;
3004;SDS011;1512;51.486;6.610;2022-07-23T21:00:17;5.10;;;4.60;;
3004;SDS011;1512;51.486;6.610;2022-07-23T21:04:26;4.60;;;4.20;;
3004;SDS011;1512;51.486;6.610;2022-07-23T21:08:35;5.33;;;4.63;;
3004;SDS011;1512;51.486;6.610;2022-07-23T21:12:43;4.80;;;4.30;;
3004;SDS011;1512;51.486;6.610;2022-07-23T21:16:53;5.10;;;4.20;;
3004;SDS011;1512;51.486;6.610;2022-07-23T21:21:02;5.77;;;5.23;;
3004;SDS011;1512;51.486;6.610;2022-07-23T21:25:22;5.43;;;4.93;;
3004;SDS011;1512;51.486;6.610;2022-07-23T21:29:30;7.23;;;5.67;;
3004;SDS011;1512;51.486;6.610;2022-07-23T21:33:39;6.20;;;5.40;;
3004;SDS011;1512;51.486;6.610;2022-07-23T21:37:49;6.17;;;5.37;;
3004;SDS011;1512;51.486;6.610;2022-07-23T21:41:58;5.20;;;4.70;;
3004;SDS011;1512;51.486;6.610;2022-07-23T21:46:07;6.67;;;6.00;;
3004;SDS011;1512;51.486;6.610;2022-07-23T21:50:16;6.40;;;5.23;;
3004;SDS011;1512;51.486;6.610;2022-07-23T21:54:25;6.00;;;5.27;;
3004;SDS011;1512;51.486;6.610;2022-07-23T21:58:34;5.60;;;5.03;;
3004;SDS011;1512;51.486;6.610;2022-07-23T22:02:42;7.30;;;5.70;;
3004;SDS011;1512;51.486;6.610;2022-07-23T22:06:51;5.43;;;4.93;;
3004;SDS011;1512;51.486;6.610;2022-07-23T22:11:00;8.07;;;5.20;;
3004;SDS011;1512;51.486;6.610;2022-07-23T22:15:10;7.77;;;6.07;;
3004;SDS011;1512;51.486;6.610;2022-07-23T22:19:21;6.80;;;6.10;;
3004;SDS011;1512;51.486;6.610;2022-07-23T22:23:29;6.63;;;5.83;;
3004;SDS011;1512;51.486;6.610;2022-07-23T22:27:38;5.73;;;5.23;;
3004;SDS011;1512;51.486;6.610;2022-07-23T22:31:47;7.30;;;6.13;;
3004;SDS011;1512;51.486;6.610;2022-07-23T22:35:56;6.23;;;5.67;;
3004;SDS011;1512;51.486;6.610;2022-07-23T22:40:05;6.60;;;5.67;;
3004;SDS011;1512;51.486;6.610;2022-07-23T22:44:14;6.87;;;6.17;;
3004;SDS011;1512;51.486;6.610;2022-07-23T22:48:23;6.03;;;5.43;;
3004;SDS011;1512;51.486;6.610;2022-07-23T22:52:33;6.20;;;5.20;;
3004;SDS011;1512;51.486;6.610;2022-07-23T22:56:41;8.20;;;5.13;;
3004;SDS011;1512;51.486;6.610;2022-07-23T23:00:50;6.67;;;5.30;;
3004;SDS011;1512;51.486;6.610;2022-07-23T23:04:59;6.40;;;5.70;;
3004;SDS011;1512;51.486;6.610;2022-07-23T23:09:08;6.23;;;5.70;;
3004;SDS011;1512;51.486;6.610;2022-07-23T23:13:17;6.33;;;5.33;;
3004;SDS011;1512;51.486;6.610;2022-07-23T23:17:26;9.53;;;5.80;;
3004;SDS011;1512;51.486;6.610;2022-07-23T23:21:34;7.47;;;6.67;;
3004;SDS011;1512;51.486;6.610;2022-07-23T23:25:43;7.10;;;5.57;;
3004;SDS011;1512;51.486;6.610;2022-07-23T23:29:52;9.90;;;6.33;;
3004;SDS011;1512;51.486;6.610;2022-07-23T23:34:00;6.53;;;5.83;;
3004;SDS011;1512;51.486;6.610;2022-07-23T23:38:09;10.00;;;6.57;;
3004;SDS011;1512;51.486;6.610;2022-07-23T23:46:25;7.10;;;5.70;;
3004;SDS011;1512;51.486;6.610;2022-07-23T23:50:35;6.00;;;5.40;;
3004;SDS011;1512;51.486;6.610;2022-07-23T23:54:44;6.90;;;5.63;;
3004;SDS011;1512;51.486;6.610;2022-07-23T23:58:52;5.40;;;4.90;;
